createdAt,value
2023-09-05T00:00:43.819Z,16.47
2023-09-05T00:01:43.833Z,16.43
2023-09-05T00:02:43.840Z,16.40
2023-09-05T00:03:43.825Z,16.39
2023-09-05T00:04:43.774Z,16.39
2023-09-05T00:05:43.789Z,16.37
2023-09-05T00:06:43.763Z,16.36
2023-09-05T00:07:43.746Z,16.34
2023-09-05T00:08:43.728Z,16.34
2023-09-05T00:09:43.709Z,16.34
2023-09-05T00:10:43.687Z,16.36
2023-09-05T00:11:43.669Z,16.36
2023-09-05T00:12:43.688Z,16.31
2023-09-05T00:13:43.673Z,16.28
2023-09-05T00:14:43.644Z,16.26
2023-09-05T00:15:43.621Z,16.28
2023-09-05T00:16:43.720Z,16.28
2023-09-05T00:17:43.652Z,16.25
2023-09-05T00:18:43.578Z,16.26
2023-09-05T00:19:43.573Z,16.25
2023-09-05T00:20:43.597Z,16.25
2023-09-05T00:21:43.539Z,16.22
2023-09-05T00:22:43.550Z,16.18
2023-09-05T00:23:43.530Z,16.17
2023-09-05T00:24:43.522Z,16.17
2023-09-05T00:25:43.479Z,16.16
2023-09-05T00:26:43.505Z,16.13
2023-09-05T00:27:43.501Z,16.13
2023-09-05T00:28:43.460Z,16.16
2023-09-05T00:29:43.432Z,16.17
2023-09-05T00:30:43.445Z,16.17
2023-09-05T00:31:43.469Z,16.17
2023-09-05T00:32:43.469Z,16.16
2023-09-05T00:33:43.413Z,16.10
2023-09-05T00:34:43.374Z,16.09
2023-09-05T00:35:43.348Z,16.09
2023-09-05T00:36:43.516Z,16.06
2023-09-05T00:37:43.412Z,16.09
2023-09-05T00:38:43.319Z,16.05
2023-09-05T00:39:43.300Z,16.02
2023-09-05T00:40:43.296Z,15.99
2023-09-05T00:41:43.279Z,15.98
2023-09-05T00:42:43.265Z,15.96
2023-09-05T00:43:43.237Z,15.96
2023-09-05T00:44:43.250Z,15.98
2023-09-05T00:45:43.254Z,15.96
2023-09-05T00:46:43.224Z,15.96
2023-09-05T00:47:43.221Z,15.96
2023-09-05T00:48:43.171Z,15.91
2023-09-05T00:49:43.159Z,15.88
2023-09-05T00:50:43.154Z,15.88
2023-09-05T00:51:43.152Z,15.90
2023-09-05T00:52:43.126Z,15.88
2023-09-05T00:53:43.105Z,15.90
2023-09-05T00:54:43.108Z,15.88
2023-09-05T00:55:43.081Z,15.88
2023-09-05T00:56:43.096Z,15.87
2023-09-05T00:57:43.049Z,15.87
2023-09-05T00:58:43.046Z,15.87
2023-09-05T00:59:43.022Z,15.85
2023-09-05T01:00:43.016Z,15.84
2023-09-05T01:01:43.063Z,15.85
2023-09-05T01:02:43.160Z,15.83
2023-09-05T01:03:42.971Z,15.81
2023-09-05T01:04:43.017Z,15.83
2023-09-05T01:05:43.022Z,15.78
2023-09-05T01:06:42.949Z,15.78
2023-09-05T01:07:42.919Z,15.76
2023-09-05T01:08:42.904Z,15.76
2023-09-05T01:09:42.898Z,15.76
2023-09-05T01:10:42.906Z,15.75
2023-09-05T01:11:42.859Z,15.76
2023-09-05T01:12:42.857Z,15.73
2023-09-05T01:13:42.874Z,15.75
2023-09-05T01:14:42.823Z,15.72
2023-09-05T01:15:42.852Z,15.67
2023-09-05T01:16:42.801Z,15.67
2023-09-05T01:17:42.802Z,15.66
2023-09-05T01:18:42.776Z,15.65
2023-09-05T01:19:42.771Z,15.63
2023-09-05T01:20:42.770Z,15.62
2023-09-05T01:21:42.715Z,15.60
2023-09-05T01:22:42.779Z,15.60
2023-09-05T01:23:42.695Z,15.59
2023-09-05T01:24:42.701Z,15.55
2023-09-05T01:25:42.671Z,15.52
2023-09-05T01:26:42.697Z,15.52
2023-09-05T01:27:42.641Z,15.54
2023-09-05T01:28:42.653Z,15.55
2023-09-05T01:29:42.634Z,15.55
2023-09-05T01:30:42.594Z,15.51
2023-09-05T01:31:42.584Z,15.50
2023-09-05T01:32:42.589Z,15.48
2023-09-05T01:33:42.562Z,15.45
2023-09-05T01:34:42.554Z,15.47
2023-09-05T01:35:42.535Z,15.44
2023-09-05T01:36:42.512Z,15.45
2023-09-05T01:37:42.504Z,15.45
2023-09-05T01:38:42.491Z,15.44
2023-09-05T01:39:42.473Z,15.45
2023-09-05T01:40:42.454Z,15.47
2023-09-05T01:41:42.447Z,15.47
2023-09-05T01:42:42.436Z,15.47
2023-09-05T01:43:42.440Z,15.45
2023-09-05T01:44:42.414Z,15.47
2023-09-05T01:45:42.417Z,15.47
2023-09-05T01:46:42.423Z,15.48
2023-09-05T01:47:42.408Z,15.45
2023-09-05T01:48:42.403Z,15.45
2023-09-05T01:49:42.361Z,15.44
2023-09-05T01:50:42.344Z,15.43
2023-09-05T01:51:42.331Z,15.41
2023-09-05T01:52:42.338Z,15.37
2023-09-05T01:53:42.313Z,15.37
2023-09-05T01:54:42.314Z,15.36
2023-09-05T01:55:42.277Z,15.35
2023-09-05T01:56:42.257Z,15.33
2023-09-05T01:57:42.260Z,15.32
2023-09-05T01:58:42.243Z,15.30
2023-09-05T01:59:42.217Z,15.32
2023-09-05T02:00:42.244Z,15.32
2023-09-05T02:01:42.313Z,15.30
2023-09-05T02:02:42.179Z,15.25
2023-09-05T02:03:42.168Z,15.19
2023-09-05T02:04:42.159Z,15.14
2023-09-05T02:05:42.166Z,15.11
2023-09-05T02:06:42.130Z,15.08
2023-09-05T02:07:42.127Z,15.10
2023-09-05T02:08:42.100Z,15.08
2023-09-05T02:09:42.103Z,15.05
2023-09-05T02:10:42.088Z,15.07
2023-09-05T02:11:42.065Z,15.05
2023-09-05T02:12:42.049Z,15.08
2023-09-05T02:13:42.036Z,15.04
2023-09-05T02:14:42.038Z,15.02
2023-09-05T02:15:42.031Z,15.02
2023-09-05T02:16:42.077Z,15.00
2023-09-05T02:17:41.992Z,15.00
2023-09-05T02:18:41.962Z,15.00
2023-09-05T02:19:41.968Z,15.04
2023-09-05T02:20:41.971Z,15.04
2023-09-05T02:21:41.989Z,15.05
2023-09-05T02:22:41.912Z,15.07
2023-09-05T02:23:41.901Z,15.07
2023-09-05T02:24:41.907Z,15.08
2023-09-05T02:25:41.876Z,15.08
2023-09-05T02:26:41.863Z,15.08
2023-09-05T02:27:41.843Z,15.07
2023-09-05T02:28:41.864Z,15.05
2023-09-05T02:29:41.855Z,15.04
2023-09-05T02:30:41.891Z,15.05
2023-09-05T02:31:41.792Z,15.07
2023-09-05T02:32:41.825Z,15.05
2023-09-05T02:33:41.783Z,15.00
2023-09-05T02:34:41.752Z,14.97
2023-09-05T02:35:41.743Z,14.97
2023-09-05T02:36:41.727Z,14.97
2023-09-05T02:37:41.716Z,14.97
2023-09-05T02:38:41.713Z,14.96
2023-09-05T02:39:41.682Z,14.94
2023-09-05T02:40:41.676Z,14.90
2023-09-05T02:41:41.681Z,14.89
2023-09-05T02:42:41.660Z,14.87
2023-09-05T02:43:41.664Z,14.87
2023-09-05T02:44:41.628Z,14.87
2023-09-05T02:45:41.614Z,14.92
2023-09-05T02:46:41.593Z,14.90
2023-09-05T02:47:41.671Z,14.90
2023-09-05T02:48:41.575Z,14.93
2023-09-05T02:49:41.549Z,14.92
2023-09-05T02:50:41.542Z,14.92
2023-09-05T02:51:41.515Z,14.93
2023-09-05T02:52:47.476Z,14.93
2023-09-05T02:53:42.485Z,14.90
2023-09-05T02:54:41.483Z,14.90
2023-09-05T02:55:41.460Z,14.90
2023-09-05T02:56:41.449Z,14.90
2023-09-05T02:57:41.455Z,14.89
2023-09-05T02:58:41.439Z,14.87
2023-09-05T02:59:41.425Z,14.89
2023-09-05T03:00:41.404Z,14.86
2023-09-05T03:01:41.435Z,14.85
2023-09-05T03:02:41.656Z,14.85
2023-09-05T03:03:41.404Z,14.82
2023-09-05T03:04:41.349Z,14.81
2023-09-05T03:05:41.330Z,14.79
2023-09-05T03:06:41.345Z,14.78
2023-09-05T03:07:41.334Z,14.77
2023-09-05T03:08:41.291Z,14.77
2023-09-05T03:09:41.274Z,14.74
2023-09-05T03:10:41.270Z,14.71
2023-09-05T03:11:41.270Z,14.70
2023-09-05T03:12:41.240Z,14.70
2023-09-05T03:13:41.255Z,14.67
2023-09-05T03:15:38.859Z,14.62
2023-09-05T03:16:38.862Z,14.59
2023-09-05T03:17:39.119Z,14.56
2023-09-05T03:18:38.800Z,14.55
2023-09-05T03:19:38.787Z,14.55
2023-09-05T03:20:38.848Z,14.55
2023-09-05T03:21:38.787Z,14.55
2023-09-05T03:22:38.758Z,14.56
2023-09-05T03:23:38.739Z,14.55
2023-09-05T03:24:38.730Z,14.56
2023-09-05T03:25:38.718Z,14.58
2023-09-05T03:26:38.720Z,14.56
2023-09-05T03:27:38.691Z,14.53
2023-09-05T03:28:38.682Z,14.52
2023-09-05T03:29:38.660Z,14.53
2023-09-05T03:30:38.668Z,14.52
2023-09-05T03:31:38.668Z,14.51
2023-09-05T03:32:38.629Z,14.51
2023-09-05T03:33:38.635Z,14.49
2023-09-05T03:34:38.605Z,14.48
2023-09-05T03:35:38.620Z,14.48
2023-09-05T03:36:38.570Z,14.48
2023-09-05T03:37:38.555Z,14.45
2023-09-05T03:38:38.562Z,14.44
2023-09-05T03:39:38.546Z,14.45
2023-09-05T03:40:38.543Z,14.44
2023-09-05T03:41:38.513Z,14.44
2023-09-05T03:42:38.488Z,14.48
2023-09-05T03:43:38.475Z,14.45
2023-09-05T03:44:38.483Z,14.45
2023-09-05T03:45:38.508Z,14.45
2023-09-05T03:46:38.442Z,14.45
2023-09-05T03:47:50.463Z,14.44
2023-09-05T03:48:39.477Z,14.41
2023-09-05T03:49:38.444Z,14.41
2023-09-05T03:50:38.392Z,14.44
2023-09-05T03:51:38.372Z,14.45
2023-09-05T03:52:38.357Z,14.44
2023-09-05T03:53:38.672Z,14.44
2023-09-05T03:54:38.352Z,14.45
2023-09-05T03:55:38.315Z,14.48
2023-09-05T03:56:38.321Z,14.48
2023-09-05T03:57:38.285Z,14.48
2023-09-05T03:58:38.299Z,14.49
2023-09-05T03:59:38.262Z,14.49
2023-09-05T04:00:38.259Z,14.51
2023-09-05T04:01:38.260Z,14.52
2023-09-05T04:02:38.285Z,14.49
2023-09-05T04:03:38.341Z,14.45
2023-09-05T04:04:38.194Z,14.49
2023-09-05T04:05:38.187Z,14.49
2023-09-05T04:06:38.168Z,14.49
2023-09-05T04:07:39.480Z,14.51
2023-09-05T04:08:38.156Z,14.51
2023-09-05T04:09:38.126Z,14.48
2023-09-05T04:10:38.163Z,14.49
2023-09-05T04:11:38.106Z,14.45
2023-09-05T04:12:38.116Z,14.49
2023-09-05T04:13:38.090Z,14.44
2023-09-05T04:14:38.064Z,14.41
2023-09-05T04:15:38.079Z,14.41
2023-09-05T04:16:38.057Z,14.40
2023-09-05T04:17:38.064Z,14.44
2023-09-05T04:18:38.030Z,14.49
2023-09-05T04:19:37.995Z,14.53
2023-09-05T04:20:38.051Z,14.49
2023-09-05T04:21:37.993Z,14.45
2023-09-05T04:22:37.986Z,14.45
2023-09-05T04:23:37.935Z,14.44
2023-09-05T04:24:37.922Z,14.45
2023-09-05T04:25:37.919Z,14.48
2023-09-05T04:26:37.925Z,14.51
2023-09-05T04:27:37.887Z,14.48
2023-09-05T04:28:37.896Z,14.48
2023-09-05T04:29:37.868Z,14.43
2023-09-05T04:30:37.861Z,14.40
2023-09-05T04:31:37.899Z,14.44
2023-09-05T04:32:37.841Z,14.43
2023-09-05T04:33:37.856Z,14.44
2023-09-05T04:34:37.805Z,14.41
2023-09-05T04:35:37.803Z,14.38
2023-09-05T04:36:37.789Z,14.38
2023-09-05T04:37:37.754Z,14.38
2023-09-05T04:38:37.752Z,14.38
2023-09-05T04:39:37.725Z,14.38
2023-09-05T04:40:37.741Z,14.37
2023-09-05T04:41:37.707Z,14.38
2023-09-05T04:42:37.692Z,14.41
2023-09-05T04:43:37.675Z,14.43
2023-09-05T04:44:37.680Z,14.43
2023-09-05T04:45:37.651Z,14.45
2023-09-05T04:46:37.682Z,14.49
2023-09-05T04:47:37.630Z,14.53
2023-09-05T04:48:37.624Z,14.53
2023-09-05T04:49:37.599Z,14.56
2023-09-05T04:50:37.599Z,14.58
2023-09-05T04:51:37.567Z,14.58
2023-09-05T04:52:37.561Z,14.62
2023-09-05T04:53:37.535Z,14.67
2023-09-05T04:54:37.539Z,14.68
2023-09-05T04:55:37.516Z,14.70
2023-09-05T04:56:37.513Z,14.71
2023-09-05T04:57:37.497Z,14.73
2023-09-05T04:58:37.478Z,14.74
2023-09-05T04:59:37.468Z,14.77
2023-09-05T05:00:37.467Z,14.77
2023-09-05T05:01:37.451Z,14.74
2023-09-05T05:02:37.521Z,14.78
2023-09-05T05:03:37.469Z,14.79
2023-09-05T05:04:37.421Z,14.79
2023-09-05T05:05:37.382Z,14.79
2023-09-05T05:06:37.388Z,14.79
2023-09-05T05:07:37.351Z,14.78
2023-09-05T05:08:37.354Z,14.78
2023-09-05T05:09:37.346Z,14.77
2023-09-05T05:10:37.317Z,14.78
2023-09-05T05:11:37.292Z,14.81
2023-09-05T05:12:37.307Z,14.82
2023-09-05T05:13:37.282Z,14.87
2023-09-05T05:14:37.283Z,14.92
2023-09-05T05:15:37.256Z,14.94
2023-09-05T05:16:37.253Z,14.97
2023-09-05T05:17:37.250Z,14.99
2023-09-05T05:18:37.222Z,15.00
2023-09-05T05:19:37.218Z,15.02
2023-09-05T05:20:37.188Z,15.04
2023-09-05T05:21:37.168Z,15.05
2023-09-05T05:22:37.162Z,15.07
2023-09-05T05:23:37.150Z,15.08
2023-09-05T05:24:37.159Z,15.12
2023-09-05T05:25:37.107Z,15.17
2023-09-05T05:26:37.107Z,15.17
2023-09-05T05:27:37.083Z,15.19
2023-09-05T05:28:37.094Z,15.23
2023-09-05T05:29:37.071Z,15.23
2023-09-05T05:30:37.050Z,15.25
2023-09-05T05:31:37.050Z,15.26
2023-09-05T05:32:37.080Z,15.26
2023-09-05T05:33:37.025Z,15.29
2023-09-05T05:34:37.057Z,15.29
2023-09-05T05:35:36.985Z,15.30
2023-09-05T05:36:36.972Z,15.32
2023-09-05T05:37:36.975Z,15.36
2023-09-05T05:38:36.954Z,15.37
2023-09-05T05:39:36.923Z,15.39
2023-09-05T05:40:36.925Z,15.41
2023-09-05T05:41:36.922Z,15.44
2023-09-05T05:42:36.930Z,15.44
2023-09-05T05:43:36.873Z,15.47
2023-09-05T05:44:36.862Z,15.50
2023-09-05T05:45:36.844Z,15.52
2023-09-05T05:46:36.900Z,15.55
2023-09-05T05:47:36.832Z,15.57
2023-09-05T05:48:36.811Z,15.60
2023-09-05T05:49:36.799Z,15.63
2023-09-05T05:50:36.791Z,15.65
2023-09-05T05:51:36.791Z,15.67
2023-09-05T05:52:36.787Z,15.70
2023-09-05T05:53:36.764Z,15.73
2023-09-05T05:54:36.734Z,15.75
2023-09-05T05:55:36.709Z,15.76
2023-09-05T05:56:36.728Z,15.83
2023-09-05T05:57:36.684Z,15.83
2023-09-05T05:58:36.675Z,15.85
2023-09-05T05:59:36.658Z,15.88
2023-09-05T06:00:36.681Z,15.91
2023-09-05T06:01:36.674Z,15.94
2023-09-05T06:02:36.652Z,15.99
2023-09-05T06:03:36.727Z,16.00
2023-09-05T06:04:36.709Z,16.03
2023-09-05T06:05:36.594Z,16.05
2023-09-05T06:06:36.585Z,16.08
2023-09-05T06:07:36.553Z,16.12
2023-09-05T06:08:36.565Z,16.13
2023-09-05T06:09:36.522Z,16.16
2023-09-05T06:10:36.533Z,16.21
2023-09-05T06:11:36.509Z,16.24
2023-09-05T06:12:36.485Z,16.25
2023-09-05T06:13:36.498Z,16.29
2023-09-05T06:14:36.472Z,16.34
2023-09-05T06:15:36.458Z,16.39
2023-09-05T06:16:36.496Z,16.43
2023-09-05T06:17:36.444Z,16.47
2023-09-05T06:18:36.413Z,16.51
2023-09-05T06:19:36.418Z,16.54
2023-09-05T06:20:36.396Z,16.58
2023-09-05T06:21:36.369Z,16.61
2023-09-05T06:22:36.357Z,16.65
2023-09-05T06:23:36.391Z,16.69
2023-09-05T06:24:36.356Z,16.73
2023-09-05T06:25:36.321Z,16.77
2023-09-05T06:26:36.304Z,16.82
2023-09-05T06:27:36.286Z,16.87
2023-09-05T06:28:36.283Z,16.92
2023-09-05T06:29:36.284Z,16.95
2023-09-05T06:30:36.259Z,16.98
2023-09-05T06:31:36.298Z,17.01
2023-09-05T06:32:36.224Z,17.05
2023-09-05T06:33:36.226Z,17.10
2023-09-05T06:34:36.217Z,17.13
2023-09-05T06:35:36.187Z,17.19
2023-09-05T06:36:37.354Z,17.22
2023-09-05T06:37:36.162Z,17.27
2023-09-05T06:38:36.195Z,17.30
2023-09-05T06:39:36.138Z,17.32
2023-09-05T06:40:36.146Z,17.35
2023-09-05T06:41:36.129Z,17.37
2023-09-05T06:42:36.087Z,17.39
2023-09-05T06:43:36.121Z,17.42
2023-09-05T06:44:36.069Z,17.46
2023-09-05T06:45:36.055Z,17.49
2023-09-05T06:46:36.039Z,17.50
2023-09-05T06:47:36.070Z,17.53
2023-09-05T06:48:36.024Z,17.56
2023-09-05T06:49:36.002Z,17.59
2023-09-05T06:50:35.995Z,17.63
2023-09-05T06:51:35.981Z,17.68
2023-09-05T06:52:35.985Z,17.71
2023-09-05T06:53:35.951Z,17.75
2023-09-05T06:54:35.926Z,17.79
2023-09-05T06:55:36.105Z,17.82
2023-09-05T06:56:35.908Z,17.86
2023-09-05T06:57:35.906Z,17.88
2023-09-05T06:58:35.874Z,17.93
2023-09-05T06:59:35.871Z,17.95
2023-09-05T07:00:35.853Z,17.98
2023-09-05T07:01:35.886Z,18.03
2023-09-05T07:02:35.847Z,18.05
2023-09-05T07:03:35.811Z,18.09
2023-09-05T07:04:35.821Z,18.12
2023-09-05T07:05:35.788Z,18.16
2023-09-05T07:06:35.781Z,18.18
2023-09-05T07:07:35.754Z,18.21
2023-09-05T07:08:35.742Z,18.26
2023-09-05T07:09:35.729Z,18.30
2023-09-05T07:10:35.716Z,18.36
2023-09-05T07:11:35.709Z,18.42
2023-09-05T07:12:35.690Z,18.45
2023-09-05T07:13:35.674Z,18.49
2023-09-05T07:14:35.663Z,18.53
2023-09-05T07:15:35.668Z,18.57
2023-09-05T07:16:35.658Z,18.60
2023-09-05T07:17:35.721Z,18.66
2023-09-05T07:18:35.597Z,18.68
2023-09-05T07:19:35.594Z,18.73
2023-09-05T07:20:35.594Z,18.78
2023-09-05T07:21:35.578Z,18.81
2023-09-05T07:22:35.556Z,18.83
2023-09-05T07:23:35.564Z,18.83
2023-09-05T07:24:35.521Z,18.88
2023-09-05T07:25:35.553Z,18.89
2023-09-05T07:26:35.505Z,18.91
2023-09-05T07:27:35.503Z,18.96
2023-09-05T07:28:35.486Z,18.97
2023-09-05T07:29:35.493Z,19.01
2023-09-05T07:30:35.521Z,19.05
2023-09-05T07:31:35.515Z,19.07
2023-09-05T07:32:35.454Z,19.08
2023-09-05T07:33:35.416Z,19.11
2023-09-05T07:34:35.432Z,19.11
2023-09-05T07:35:35.402Z,19.15
2023-09-05T07:36:35.372Z,19.16
2023-09-05T07:37:35.366Z,19.17
2023-09-05T07:38:35.348Z,19.22
2023-09-05T07:39:35.356Z,19.24
2023-09-05T07:40:35.324Z,19.29
2023-09-05T07:41:35.322Z,19.32
2023-09-05T07:42:35.296Z,19.37
2023-09-05T07:43:35.289Z,19.39
2023-09-05T07:44:35.294Z,19.44
2023-09-05T07:45:35.277Z,19.47
2023-09-05T07:46:35.261Z,19.48
2023-09-05T07:47:35.297Z,19.52
2023-09-05T07:48:35.221Z,19.56
2023-09-05T07:49:35.225Z,19.55
2023-09-05T07:50:35.193Z,19.56
2023-09-05T07:51:35.197Z,19.59
2023-09-05T07:52:35.169Z,19.59
2023-09-05T07:53:35.165Z,19.63
2023-09-05T07:54:35.195Z,19.70
2023-09-05T07:55:35.131Z,19.71
2023-09-05T07:56:35.116Z,19.75
2023-09-05T07:57:35.099Z,19.79
2023-09-05T07:58:35.108Z,19.81
2023-09-05T07:59:35.076Z,19.82
2023-09-05T08:00:35.073Z,19.85
2023-09-05T08:01:35.092Z,19.92
2023-09-05T08:02:35.062Z,19.97
2023-09-05T08:03:35.106Z,20.04
2023-09-05T08:04:35.011Z,20.08
2023-09-05T08:05:35.002Z,20.10
2023-09-05T08:06:34.988Z,20.12
2023-09-05T08:07:34.978Z,20.14
2023-09-05T08:08:34.979Z,20.15
2023-09-05T08:09:34.952Z,20.21
2023-09-05T08:10:34.927Z,20.24
2023-09-05T08:11:34.921Z,20.29
2023-09-05T08:12:34.923Z,20.33
2023-09-05T08:13:34.915Z,20.36
2023-09-05T08:14:34.870Z,20.37
2023-09-05T08:15:34.886Z,20.39
2023-09-05T08:16:34.853Z,20.39
2023-09-05T08:17:34.857Z,20.44
2023-09-05T08:18:34.889Z,20.46
2023-09-05T08:19:34.823Z,20.50
2023-09-05T08:20:34.801Z,20.56
2023-09-05T08:21:34.791Z,20.60
2023-09-05T08:22:34.785Z,20.66
2023-09-05T08:23:34.763Z,20.70
2023-09-05T08:24:34.759Z,20.74
2023-09-05T08:25:34.758Z,20.78
2023-09-05T08:26:34.736Z,20.82
2023-09-05T08:27:34.745Z,20.83
2023-09-05T08:28:34.712Z,20.85
2023-09-05T08:29:34.688Z,20.86
2023-09-05T08:30:34.675Z,20.86
2023-09-05T08:31:34.707Z,20.86
2023-09-05T08:32:34.768Z,20.88
2023-09-05T08:33:34.678Z,20.88
2023-09-05T08:34:34.623Z,20.88
2023-09-05T08:35:34.610Z,20.86
2023-09-05T08:36:34.605Z,20.88
2023-09-05T08:37:34.579Z,20.90
2023-09-05T08:38:34.572Z,20.93
2023-09-05T08:39:34.559Z,20.95
2023-09-05T08:40:34.550Z,20.96
2023-09-05T08:41:34.556Z,21.00
2023-09-05T08:42:34.505Z,21.01
2023-09-05T08:43:34.501Z,21.05
2023-09-05T08:44:34.486Z,21.11
2023-09-05T08:45:34.494Z,21.15
2023-09-05T08:46:34.553Z,21.22
2023-09-05T08:47:34.488Z,21.23
2023-09-05T08:48:51.915Z,21.29
2023-09-05T08:49:35.420Z,21.32
2023-09-05T08:50:34.427Z,21.35
2023-09-05T08:51:34.405Z,21.40
2023-09-05T08:52:34.387Z,21.45
2023-09-05T08:53:34.372Z,21.48
2023-09-05T08:54:34.396Z,21.53
2023-09-05T08:55:34.358Z,21.56
2023-09-05T08:56:34.325Z,21.59
2023-09-05T08:57:34.317Z,21.63
2023-09-05T08:58:34.313Z,21.66
2023-09-05T08:59:34.316Z,21.69
2023-09-05T09:00:34.325Z,21.70
2023-09-05T09:01:35.255Z,21.72
2023-09-05T09:02:34.343Z,21.74
2023-09-05T09:03:34.266Z,21.74
2023-09-05T09:04:34.240Z,21.75
2023-09-05T09:05:34.213Z,21.77
2023-09-05T09:06:34.192Z,21.78
2023-09-05T09:07:34.198Z,21.78
2023-09-05T09:08:34.183Z,21.80
2023-09-05T09:09:34.164Z,21.81
2023-09-05T09:10:34.139Z,21.88
2023-09-05T09:11:34.132Z,21.96
2023-09-05T09:12:34.109Z,21.99
2023-09-05T09:13:34.111Z,22.04
2023-09-05T09:14:34.113Z,22.06
2023-09-05T09:15:34.079Z,22.08
2023-09-05T09:16:34.119Z,22.14
2023-09-05T09:17:34.069Z,22.18
2023-09-05T09:18:34.060Z,22.19
2023-09-05T09:19:34.109Z,22.21
2023-09-05T09:20:34.011Z,22.22
2023-09-05T09:21:34.226Z,22.23
2023-09-05T09:22:33.997Z,22.25
2023-09-05T09:23:33.981Z,22.25
2023-09-05T09:24:33.959Z,22.26
2023-09-05T09:25:33.937Z,22.28
2023-09-05T09:26:33.934Z,22.28
2023-09-05T09:27:33.929Z,22.33
2023-09-05T09:28:33.910Z,22.34
2023-09-05T09:29:33.889Z,22.38
2023-09-05T09:30:33.893Z,22.40
2023-09-05T09:31:33.858Z,22.41
2023-09-05T09:32:33.870Z,22.43
2023-09-05T09:33:33.926Z,22.44
2023-09-05T09:34:33.827Z,22.51
2023-09-05T09:35:33.801Z,22.51
2023-09-05T09:36:33.793Z,22.56
2023-09-05T09:37:33.805Z,22.61
2023-09-05T09:38:33.774Z,22.67
2023-09-05T09:39:33.957Z,22.70
2023-09-05T09:40:33.723Z,22.78
2023-09-05T09:41:33.741Z,22.83
2023-09-05T09:42:33.713Z,22.88
2023-09-05T09:43:33.699Z,22.91
2023-09-05T09:44:33.714Z,22.95
2023-09-05T09:45:33.678Z,22.99
2023-09-05T09:46:33.678Z,23.01
2023-09-05T09:47:33.716Z,23.04
2023-09-05T09:48:33.640Z,23.02
2023-09-05T09:49:33.627Z,23.02
2023-09-05T09:50:33.600Z,23.01
2023-09-05T09:51:33.615Z,23.04
2023-09-05T09:52:33.567Z,23.04
2023-09-05T09:53:33.565Z,23.07
2023-09-05T09:54:33.690Z,23.11
2023-09-05T09:55:33.547Z,23.16
2023-09-05T09:56:33.544Z,23.18
2023-09-05T09:57:41.888Z,23.21
2023-09-05T09:58:34.498Z,23.29
2023-09-05T09:59:33.484Z,23.33
2023-09-05T10:00:33.497Z,23.39
2023-09-05T10:01:33.535Z,23.40
2023-09-05T10:02:33.470Z,23.44
2023-09-05T10:03:33.557Z,23.47
2023-09-05T10:04:33.414Z,23.48
2023-09-05T10:05:33.417Z,23.48
2023-09-05T10:06:33.383Z,23.49
2023-09-05T10:07:33.399Z,23.51
2023-09-05T10:08:33.373Z,23.51
2023-09-05T10:09:33.358Z,23.55
2023-09-05T10:10:33.355Z,23.58
2023-09-05T10:11:33.329Z,23.59
2023-09-05T10:12:33.305Z,23.62
2023-09-05T10:13:33.317Z,23.63
2023-09-05T10:14:33.275Z,23.64
2023-09-05T10:15:33.288Z,23.69
2023-09-05T10:16:33.326Z,23.71
2023-09-05T10:17:33.279Z,23.76
2023-09-05T10:18:33.244Z,23.79
2023-09-05T10:19:33.237Z,23.82
2023-09-05T10:20:33.209Z,23.86
2023-09-05T10:21:33.197Z,23.86
2023-09-05T10:22:33.180Z,23.91
2023-09-05T10:23:33.168Z,23.94
2023-09-05T10:24:33.167Z,23.99
2023-09-05T10:25:33.149Z,24.03
2023-09-05T10:26:33.247Z,24.03
2023-09-05T10:27:33.138Z,24.07
2023-09-05T10:28:33.116Z,24.09
2023-09-05T10:29:33.096Z,24.10
2023-09-05T10:30:33.076Z,24.13
2023-09-05T10:31:33.088Z,24.19
2023-09-05T10:32:33.049Z,24.22
2023-09-05T10:33:33.027Z,24.28
2023-09-05T10:34:33.034Z,24.36
2023-09-05T10:35:33.023Z,24.40
2023-09-05T10:36:32.979Z,24.43
2023-09-05T10:37:32.978Z,24.46
2023-09-05T10:38:33.009Z,24.47
2023-09-05T10:39:32.959Z,24.47
2023-09-05T10:40:32.942Z,24.50
2023-09-05T10:41:32.929Z,24.50
2023-09-05T10:42:32.901Z,24.50
2023-09-05T10:43:32.928Z,24.53
2023-09-05T10:44:32.897Z,24.56
2023-09-05T10:45:32.866Z,24.62
2023-09-05T10:46:32.859Z,24.65
2023-09-05T10:47:32.859Z,24.68
2023-09-05T10:48:32.853Z,24.69
2023-09-05T10:49:32.817Z,24.74
2023-09-05T10:50:32.821Z,24.77
2023-09-05T10:51:32.790Z,24.79
2023-09-05T10:52:32.794Z,24.81
2023-09-05T10:53:32.771Z,24.82
2023-09-05T10:54:32.765Z,24.84
2023-09-05T10:55:32.731Z,24.81
2023-09-05T10:56:32.732Z,24.81
2023-09-05T10:57:32.802Z,24.82
2023-09-05T10:58:32.733Z,24.82
2023-09-05T10:59:32.687Z,24.82
2023-09-05T11:00:32.674Z,24.88
2023-09-05T11:01:32.727Z,24.93
2023-09-05T11:02:32.668Z,24.96
2023-09-05T11:03:32.645Z,25.00
2023-09-05T11:04:32.652Z,25.01
2023-09-05T11:05:32.594Z,25.03
2023-09-05T11:06:32.629Z,25.04
2023-09-05T11:07:32.607Z,25.07
2023-09-05T11:08:32.598Z,25.09
2023-09-05T11:09:32.551Z,25.11
2023-09-05T11:10:32.544Z,25.12
2023-09-05T11:11:32.560Z,25.12
2023-09-05T11:12:32.516Z,25.16
2023-09-05T11:13:32.505Z,25.19
2023-09-05T11:14:32.495Z,25.24
2023-09-05T11:15:32.553Z,25.26
2023-09-05T11:16:32.591Z,25.30
2023-09-05T11:17:32.464Z,25.31
2023-09-05T11:18:32.443Z,25.34
2023-09-05T11:19:32.420Z,25.37
2023-09-05T11:20:32.413Z,25.44
2023-09-05T11:21:32.405Z,25.48
2023-09-05T11:22:32.382Z,25.51
2023-09-05T11:23:32.372Z,25.52
2023-09-05T11:24:32.365Z,25.55
2023-09-05T11:25:32.347Z,25.52
2023-09-05T11:26:32.353Z,25.49
2023-09-05T11:27:32.322Z,25.46
2023-09-05T11:28:33.561Z,25.44
2023-09-05T11:29:32.290Z,25.48
2023-09-05T11:30:32.292Z,25.48
2023-09-05T11:31:32.368Z,25.49
2023-09-05T11:32:32.264Z,25.52
2023-09-05T11:33:32.245Z,25.56
2023-09-05T11:34:32.226Z,25.55
2023-09-05T11:35:32.254Z,25.56
2023-09-05T11:36:32.210Z,25.58
2023-09-05T11:37:32.199Z,25.59
2023-09-05T11:38:32.185Z,25.62
2023-09-05T11:39:32.219Z,25.61
2023-09-05T11:40:32.171Z,25.61
2023-09-05T11:41:32.159Z,25.63
2023-09-05T11:42:32.288Z,25.63
2023-09-05T11:43:32.121Z,25.70
2023-09-05T11:44:32.139Z,25.74
2023-09-05T11:45:32.086Z,25.74
2023-09-05T11:46:32.103Z,25.77
2023-09-05T11:47:32.064Z,25.80
2023-09-05T11:48:32.107Z,25.81
2023-09-05T11:49:32.049Z,25.85
2023-09-05T11:50:32.023Z,25.89
2023-09-05T11:51:32.069Z,25.95
2023-09-05T11:52:32.001Z,25.95
2023-09-05T11:53:31.992Z,25.98
2023-09-05T11:54:31.996Z,26.01
2023-09-05T11:55:31.960Z,26.03
2023-09-05T11:56:31.947Z,26.03
2023-09-05T11:57:31.939Z,26.08
2023-09-05T11:58:31.951Z,26.11
2023-09-05T11:59:31.911Z,26.18
2023-09-05T12:00:31.887Z,26.24
2023-09-05T12:01:31.918Z,26.30
2023-09-05T12:02:31.875Z,26.30
2023-09-05T12:03:31.928Z,26.33
2023-09-05T12:04:31.877Z,26.33
2023-09-05T12:05:31.827Z,26.34
2023-09-05T12:06:31.819Z,26.31
2023-09-05T12:07:31.813Z,26.31
2023-09-05T12:08:36.912Z,26.31
2023-09-05T12:09:32.771Z,26.30
2023-09-05T12:10:31.759Z,26.31
2023-09-05T12:11:31.758Z,26.34
2023-09-05T12:12:31.745Z,26.41
2023-09-05T12:13:31.731Z,26.41
2023-09-05T12:14:31.713Z,26.44
2023-09-05T12:15:31.765Z,26.51
2023-09-05T12:16:31.685Z,26.55
2023-09-05T12:17:31.694Z,26.55
2023-09-05T12:18:31.786Z,26.56
2023-09-05T12:19:31.658Z,26.56
2023-09-05T12:20:31.629Z,26.55
2023-09-05T12:21:34.389Z,26.60
2023-09-05T12:22:31.621Z,26.60
2023-09-05T12:23:31.613Z,26.60
2023-09-05T12:24:31.580Z,26.64
2023-09-05T12:25:42.775Z,26.67
2023-09-05T12:26:32.604Z,26.70
2023-09-05T12:27:31.558Z,26.71
2023-09-05T12:28:31.533Z,26.71
2023-09-05T12:29:31.505Z,26.73
2023-09-05T12:30:31.505Z,26.74
2023-09-05T12:31:31.545Z,26.68
2023-09-05T12:32:31.490Z,26.67
2023-09-05T12:33:31.463Z,26.71
2023-09-05T12:34:31.451Z,26.76
2023-09-05T12:35:31.426Z,26.82
2023-09-05T12:36:31.451Z,26.82
2023-09-05T12:37:31.412Z,26.83
2023-09-05T12:38:31.455Z,26.83
2023-09-05T12:39:31.377Z,26.85
2023-09-05T12:40:31.368Z,26.88
2023-09-05T12:41:31.380Z,26.92
2023-09-05T12:42:31.349Z,26.97
2023-09-05T12:43:31.357Z,26.97
2023-09-05T12:44:31.324Z,26.97
2023-09-05T12:45:31.369Z,26.97
2023-09-05T12:46:31.353Z,26.97
2023-09-05T12:47:31.704Z,27.00
2023-09-05T12:48:31.269Z,27.01
2023-09-05T12:49:31.245Z,27.01
2023-09-05T12:50:31.928Z,27.04
2023-09-05T12:51:31.245Z,27.03
2023-09-05T12:52:31.217Z,27.08
2023-09-05T12:53:31.207Z,27.13